Time;durP1;ratioP1;P1;durP2;ratioP2;P2;SDS_P1;SDS_P2;PMS_P1;PMS_P2;Temp;Humidity;BMP_temperature;BMP_pressure;BME280_temperature;BME280_humidity;BME280_pressure;Samples;Min_cycle;Max_cycle;Signal;HPM_P1;HPM_P2
2022/10/05 00:01:33;;;;;;;8.90;1.30;;;16.70;99.90;;;;;;5049424;28;20462;-71
2022/10/05 00:04:20;;;;;;;6.10;1.20;;;16.70;99.90;;;;;;5043866;28;20060;-72
2022/10/05 00:06:57;;;;;;;6.47;1.05;;;16.80;99.90;;;;;;5060793;28;20090;-70
2022/10/05 00:09:23;;;;;;;4.93;0.98;;;16.70;99.90;;;;;;5056240;28;20056;-71
2022/10/05 00:11:49;;;;;;;8.95;1.23;;;16.70;99.90;;;;;;5065243;28;20142;-70
2022/10/05 00:14:35;;;;;;;8.25;1.38;;;16.70;99.90;;;;;;5062483;28;20048;-71
2022/10/05 00:17:03;;;;;;;6.05;1.30;;;16.70;99.90;;;;;;5061869;28;20029;-70
2022/10/05 00:19:35;;;;;;;6.20;1.40;;;16.70;99.90;;;;;;5060407;28;20518;-71
2022/10/05 00:22:13;;;;;;;6.68;1.45;;;16.70;99.90;;;;;;5060632;28;20063;-70
2022/10/05 00:24:39;;;;;;;8.13;1.73;;;16.70;99.90;;;;;;5054900;28;20024;-70
2022/10/05 00:27:32;;;;;;;6.75;1.50;;;16.70;99.90;;;;;;5065429;28;20058;-70
2022/10/05 00:30:06;;;;;;;7.03;1.50;;;16.70;99.90;;;;;;5067466;28;20082;-72
2022/10/05 00:32:31;;;;;;;10.32;2.05;;;16.70;99.90;;;;;;5063260;28;20042;-71
2022/10/05 00:34:57;;;;;;;8.00;1.48;;;16.80;99.90;;;;;;5068851;28;20024;-70
2022/10/05 00:37:22;;;;;;;10.52;1.98;;;16.80;99.90;;;;;;5064893;28;20351;-70
2022/10/05 00:39:48;;;;;;;8.50;1.90;;;16.80;99.90;;;;;;5065203;28;20413;-71
2022/10/05 00:42:14;;;;;;;7.75;1.30;;;16.80;99.90;;;;;;5062688;28;20488;-71
2022/10/05 00:45:05;;;;;;;6.32;1.30;;;16.80;99.90;;;;;;5063708;28;20033;-71
2022/10/05 00:47:46;;;;;;;8.52;1.48;;;16.80;99.90;;;;;;5049867;28;20037;-71
2022/10/05 00:50:58;;;;;;;5.68;1.10;;;16.70;99.90;;;;;;5065744;28;20075;-73
2022/10/05 00:53:45;;;;;;;7.70;1.40;;;16.80;99.90;;;;;;5005236;28;20500;-74
2022/10/05 00:56:34;;;;;;;5.93;1.42;;;16.80;99.90;;;;;;5004477;28;20484;-72
2022/10/05 00:59:21;;;;;;;6.57;1.17;;;16.80;99.90;;;;;;5005926;28;20034;-71
2022/10/05 01:02:04;;;;;;;6.97;1.20;;;16.80;99.90;;;;;;5002395;28;20037;-73
2022/10/05 01:04:58;;;;;;;7.15;1.33;;;16.80;99.90;;;;;;5002326;28;20137;-71
2022/10/05 01:07:50;;;;;;;9.30;1.30;;;16.80;99.90;;;;;;4999644;28;20688;-72
2022/10/05 01:10:24;;;;;;;8.25;1.40;;;16.90;99.90;;;;;;5003706;28;20054;-74
2022/10/05 01:13:01;;;;;;;6.28;1.60;;;16.90;99.90;;;;;;5009318;28;20077;-71
2022/10/05 01:15:53;;;;;;;6.32;1.35;;;16.90;99.90;;;;;;4988470;28;20475;-71
2022/10/05 01:18:22;;;;;;;8.50;1.13;;;16.90;99.90;;;;;;4946684;28;20569;-71
2022/10/05 01:21:24;;;;;;;8.00;1.60;;;16.90;99.90;;;;;;4947256;28;20039;-71
2022/10/05 01:24:10;;;;;;;3.70;1.10;;;16.90;99.90;;;;;;4919919;29;20039;-71
2022/10/05 01:27:00;;;;;;;7.80;1.40;;;16.80;99.90;;;;;;4914915;29;20039;-73
2022/10/05 01:29:53;;;;;;;4.30;0.82;;;16.80;99.90;;;;;;4929209;29;20411;-71
2022/10/05 01:32:43;;;;;;;7.13;1.30;;;16.80;99.90;;;;;;4929915;29;20236;-72
2022/10/05 01:35:33;;;;;;;8.43;1.77;;;16.90;99.90;;;;;;4941076;29;20526;-71
2022/10/05 01:38:04;;;;;;;8.93;1.23;;;16.80;99.90;;;;;;4945042;29;20528;-72
2022/10/05 01:40:33;;;;;;;5.72;1.25;;;16.80;99.90;;;;;;4946634;29;20517;-71
2022/10/05 01:43:06;;;;;;;4.60;1.33;;;16.80;99.90;;;;;;4947329;29;20047;-71
2022/10/05 01:45:43;;;;;;;6.03;1.30;;;16.90;99.90;;;;;;4946819;29;20039;-71
2022/10/05 01:48:44;;;;;;;6.53;1.40;;;16.80;99.90;;;;;;4938299;28;20043;-71
2022/10/05 01:51:24;;;;;;;6.45;1.20;;;16.90;99.90;;;;;;4946614;29;20069;-71
2022/10/05 01:54:04;;;;;;;6.25;1.20;;;16.90;99.90;;;;;;4945977;29;20141;-72
2022/10/05 01:56:30;;;;;;;7.35;1.30;;;16.90;99.90;;;;;;5001526;28;20982;-71
2022/10/05 01:59:27;;;;;;;8.73;1.48;;;16.80;99.90;;;;;;5003175;28;20076;-71
2022/10/05 02:02:08;;;;;;;5.18;1.40;;;16.90;99.90;;;;;;5061724;28;20094;-71
2022/10/05 02:04:58;;;;;;;8.27;1.67;;;16.80;99.90;;;;;;5043789;28;20509;-71
2022/10/05 02:07:29;;;;;;;;;;;16.80;99.90;;;;;;5062835;28;20033;-71
2022/10/05 02:10:10;;;;;;;6.80;1.48;;;16.90;99.90;;;;;;5037863;28;20650;-71
2022/10/05 02:12:37;;;;;;;7.25;1.33;;;16.90;99.90;;;;;;5063778;28;20068;-71
2022/10/05 02:15:12;;;;;;;6.75;1.40;;;16.90;99.90;;;;;;5063637;28;20070;-71
2022/10/05 02:17:43;;;;;;;8.93;1.50;;;16.90;99.90;;;;;;5069408;28;20051;-71
2022/10/05 02:20:13;;;;;;;6.30;1.08;;;16.90;99.90;;;;;;5068292;28;20472;-70
2022/10/05 02:22:45;;;;;;;7.63;1.50;;;16.90;99.90;;;;;;5063584;28;20394;-71
2022/10/05 02:25:15;;;;;;;8.27;1.55;;;16.90;99.90;;;;;;5065080;28;20075;-71
2022/10/05 02:27:52;;;;;;;6.68;1.30;;;16.90;99.90;;;;;;5062243;28;20142;-71
2022/10/05 02:30:18;;;;;;;8.07;1.30;;;16.90;99.90;;;;;;5058979;28;20767;-75
2022/10/05 02:32:54;;;;;;;8.05;1.63;;;16.90;99.90;;;;;;5066000;28;20024;-72
2022/10/05 02:35:21;;;;;;;7.13;1.20;;;16.90;99.90;;;;;;5063667;28;20115;-76
2022/10/05 02:38:12;;;;;;;5.78;1.38;;;16.90;99.90;;;;;;5069632;28;20060;-71
2022/10/05 02:41:09;;;;;;;6.68;1.40;;;16.90;99.90;;;;;;5060219;28;20048;-72
2022/10/05 02:43:41;;;;;;;7.45;1.40;;;16.90;99.90;;;;;;5062254;28;20123;-70
2022/10/05 02:46:25;;;;;;;7.60;1.50;;;17.00;99.90;;;;;;5054864;28;20083;-71
2022/10/05 02:49:14;;;;;;;8.10;1.80;;;16.90;99.90;;;;;;5060493;28;20036;-78
2022/10/05 02:51:51;;;;;;;10.90;1.42;;;17.00;99.90;;;;;;5046818;28;20040;-71
2022/10/05 02:54:41;;;;;;;7.90;1.58;;;17.00;99.90;;;;;;5068830;28;20032;-71
2022/10/05 02:57:15;;;;;;;6.70;1.30;;;17.00;99.90;;;;;;5058897;28;20032;-71
2022/10/05 02:59:55;;;;;;;6.15;1.25;;;17.00;99.90;;;;;;5067399;28;20447;-73
2022/10/05 03:02:40;;;;;;;4.63;1.10;;;16.90;99.90;;;;;;5064652;28;20070;-71
2022/10/05 03:05:22;;;;;;;5.43;1.05;;;17.00;99.90;;;;;;5070425;28;20046;-72
2022/10/05 03:08:02;;;;;;;8.27;1.48;;;17.00;99.90;;;;;;5067663;28;20493;-71
2022/10/05 03:10:59;;;;;;;7.20;1.58;;;16.90;99.90;;;;;;5070361;28;20055;-71
2022/10/05 03:13:39;;;;;;;8.85;1.58;;;16.90;99.90;;;;;;5051592;28;20064;-72
2022/10/05 03:16:19;;;;;;;7.03;1.52;;;16.90;99.90;;;;;;5056248;28;20063;-73
2022/10/05 03:19:09;;;;;;;8.65;1.50;;;16.90;99.90;;;;;;5066088;28;20029;-71
2022/10/05 03:21:51;;;;;;;8.02;1.50;;;16.90;99.90;;;;;;5061708;28;20036;-71
2022/10/05 03:24:23;;;;;;;6.20;1.33;;;16.90;99.90;;;;;;5058326;28;20039;-71
2022/10/05 03:26:58;;;;;;;6.82;1.67;;;16.90;99.90;;;;;;5055066;28;20024;-71
2022/10/05 03:30:03;;;;;;;8.15;1.63;;;16.90;99.90;;;;;;5055334;28;20036;-72
2022/10/05 03:32:44;;;;;;;6.43;1.20;;;16.90;99.90;;;;;;5031886;28;20125;-71
2022/10/05 03:35:16;;;;;;;7.63;1.90;;;16.90;99.90;;;;;;5063965;28;20036;-71
2022/10/05 03:38:09;;;;;;;5.65;1.50;;;16.90;99.90;;;;;;5061014;28;20032;-70
2022/10/05 03:40:56;;;;;;;6.78;1.65;;;16.90;99.90;;;;;;5042980;28;20041;-72
2022/10/05 03:43:31;;;;;;;8.27;1.38;;;16.90;99.90;;;;;;5065255;28;20036;-71
2022/10/05 03:46:08;;;;;;;10.40;1.70;;;16.90;99.90;;;;;;5063191;28;20036;-70
2022/10/05 03:49:12;;;;;;;7.13;1.60;;;16.90;99.90;;;;;;5067511;28;20037;-72
2022/10/05 03:52:05;;;;;;;7.32;1.42;;;16.90;99.90;;;;;;5058765;28;20032;-71
2022/10/05 03:54:38;;;;;;;7.05;1.67;;;16.90;99.90;;;;;;5050438;28;20514;-71
2022/10/05 03:57:13;;;;;;;6.15;1.40;;;16.90;99.90;;;;;;5064127;28;20046;-71
2022/10/05 03:59:48;;;;;;;9.02;1.70;;;16.90;99.90;;;;;;5050594;28;20036;-71
2022/10/05 04:02:43;;;;;;;12.40;2.10;;;16.90;99.90;;;;;;5063798;28;20574;-71
2022/10/05 04:05:08;;;;;;;6.20;1.50;;;16.90;99.90;;;;;;5045642;28;20032;-73
2022/10/05 04:07:45;;;;;;;7.10;1.48;;;16.90;99.90;;;;;;5064206;28;20025;-71
2022/10/05 04:10:37;;;;;;;11.57;2.25;;;17.00;99.90;;;;;;5066656;28;20072;-71
2022/10/05 04:13:21;;;;;;;12.23;2.22;;;17.00;99.90;;;;;;5064908;28;20105;-71
2022/10/05 04:16:00;;;;;;;7.00;1.55;;;16.90;99.90;;;;;;5062814;28;20033;-71
2022/10/05 04:19:04;;;;;;;8.57;1.85;;;16.90;99.90;;;;;;5059642;28;20482;-71
2022/10/05 04:21:48;;;;;;;6.65;1.70;;;16.90;99.90;;;;;;5055801;28;20119;-71
2022/10/05 04:24:47;;;;;;;10.00;1.52;;;16.90;99.90;;;;;;5052842;28;20138;-72
2022/10/05 04:27:22;;;;;;;9.10;1.90;;;16.90;99.90;;;;;;5059449;28;20483;-71
2022/10/05 04:30:11;;;;;;;9.75;1.77;;;16.90;99.90;;;;;;5061590;28;20028;-71
2022/10/05 04:32:41;;;;;;;7.28;2.10;;;16.90;99.90;;;;;;5064744;28;20025;-71
2022/10/05 04:35:39;;;;;;;9.27;1.67;;;16.90;99.90;;;;;;5062064;28;20040;-71
2022/10/05 04:38:59;;;;;;;9.50;1.60;;;16.90;99.90;;;;;;5057371;28;20040;-71
2022/10/05 04:42:12;;;;;;;12.05;1.80;;;16.90;99.90;;;;;;5005170;28;20049;-72
2022/10/05 04:44:59;;;;;;;9.75;1.60;;;16.90;99.90;;;;;;5006070;28;20042;-71
2022/10/05 04:47:43;;;;;;;6.93;1.60;;;16.90;99.90;;;;;;5002437;28;20061;-71
2022/10/05 04:50:11;;;;;;;7.65;1.75;;;16.90;99.90;;;;;;5005740;28;20062;-71
2022/10/05 04:52:49;;;;;;;7.22;1.88;;;16.90;99.90;;;;;;5004948;28;20038;-71
2022/10/05 04:55:33;;;;;;;5.25;1.50;;;16.90;99.90;;;;;;5003363;28;20057;-74
2022/10/05 04:58:30;;;;;;;6.05;1.67;;;17.00;99.90;;;;;;5003188;28;20472;-72
2022/10/05 05:01:25;;;;;;;10.43;2.50;;;17.00;99.90;;;;;;5005165;28;20061;-71
2022/10/05 05:03:58;;;;;;;8.00;1.58;;;17.00;99.90;;;;;;5003182;28;20052;-71
2022/10/05 05:06:30;;;;;;;6.03;1.67;;;17.00;99.90;;;;;;5004630;28;20423;-71
2022/10/05 05:09:22;;;;;;;12.75;2.00;;;16.90;99.90;;;;;;5005093;28;20440;-73
2022/10/05 05:12:11;;;;;;;8.48;2.47;;;16.90;99.90;;;;;;5007336;28;20041;-70
2022/10/05 05:14:53;;;;;;;8.75;1.45;;;16.90;99.90;;;;;;5021173;28;20282;-71
2022/10/05 05:17:48;;;;;;;10.93;2.00;;;16.90;99.90;;;;;;5064711;28;20054;-72
2022/10/05 05:20:41;;;;;;;6.50;1.50;;;16.90;99.90;;;;;;5052308;28;20054;-75
2022/10/05 05:23:19;;;;;;;12.40;1.92;;;16.90;99.90;;;;;;5059663;28;20040;-71
2022/10/05 05:25:47;;;;;;;6.93;1.65;;;16.90;99.90;;;;;;5062348;28;20032;-72
2022/10/05 05:28:30;;;;;;;8.02;1.70;;;16.90;99.90;;;;;;5048013;28;20040;-71
2022/10/05 05:31:11;;;;;;;6.18;1.73;;;16.90;99.90;;;;;;5037525;28;20037;-71
2022/10/05 05:34:06;;;;;;;11.63;1.80;;;16.90;99.90;;;;;;5071473;28;20036;-71
2022/10/05 05:36:52;;;;;;;12.23;2.67;;;16.90;99.90;;;;;;4985496;28;20080;-72
2022/10/05 05:39:28;;;;;;;7.03;1.70;;;16.90;99.90;;;;;;5005006;28;20056;-71
2022/10/05 05:41:59;;;;;;;10.82;2.35;;;16.90;99.90;;;;;;5004029;28;20050;-72
2022/10/05 05:44:38;;;;;;;11.05;1.90;;;16.90;99.90;;;;;;5005621;28;20030;-71
2022/10/05 05:47:19;;;;;;;8.32;1.70;;;16.90;99.90;;;;;;5004517;28;20614;-72
2022/10/05 05:50:03;;;;;;;7.72;2.00;;;16.90;99.90;;;;;;5005435;28;20121;-71
2022/10/05 05:52:43;;;;;;;9.95;2.13;;;16.90;99.90;;;;;;5009442;28;20117;-72
2022/10/05 05:55:17;;;;;;;8.85;2.13;;;16.90;99.90;;;;;;5008303;28;20050;-71
2022/10/05 05:57:56;;;;;;;6.25;1.65;;;16.90;99.90;;;;;;5002542;28;20551;-71
2022/10/05 06:00:41;;;;;;;9.15;2.00;;;17.00;99.90;;;;;;5001023;28;20049;-72
2022/10/05 06:03:36;;;;;;;8.23;1.80;;;16.90;99.90;;;;;;5005593;28;20213;-72
2022/10/05 06:06:15;;;;;;;11.15;1.88;;;16.90;99.90;;;;;;4988442;28;20053;-71
2022/10/05 06:08:49;;;;;;;8.90;1.80;;;16.90;99.90;;;;;;4990789;28;20128;-72
2022/10/05 06:11:22;;;;;;;6.53;2.03;;;16.90;99.90;;;;;;5003668;28;20516;-72
2022/10/05 06:13:49;;;;;;;11.75;2.05;;;16.90;99.90;;;;;;5046629;28;20064;-72
2022/10/05 06:16:44;;;;;;;7.93;2.00;;;16.90;99.90;;;;;;5047714;28;20040;-71
2022/10/05 06:19:20;;;;;;;9.32;1.52;;;16.90;99.90;;;;;;5056818;28;20039;-73
2022/10/05 06:22:13;;;;;;;8.48;2.05;;;16.90;99.90;;;;;;5045562;28;20544;-72
2022/10/05 06:25:00;;;;;;;7.97;1.67;;;16.90;99.90;;;;;;5047366;28;20123;-72
2022/10/05 06:27:34;;;;;;;4.65;1.48;;;16.90;99.90;;;;;;5062910;28;20040;-71
2022/10/05 06:30:10;;;;;;;9.35;1.80;;;16.90;99.90;;;;;;5058830;28;20079;-72
2022/10/05 06:32:41;;;;;;;7.55;1.98;;;16.90;99.90;;;;;;5059496;28;20032;-72
2022/10/05 06:35:22;;;;;;;9.77;1.70;;;17.00;99.90;;;;;;5055037;28;20431;-72
2022/10/05 06:37:53;;;;;;;8.93;1.90;;;17.00;99.90;;;;;;5066480;28;20033;-72
2022/10/05 06:40:40;;;;;;;8.00;1.60;;;17.00;99.90;;;;;;5067160;28;20082;-72
2022/10/05 06:43:24;;;;;;;10.07;2.10;;;16.90;99.90;;;;;;5056315;28;20039;-71
2022/10/05 06:46:02;;;;;;;7.68;1.77;;;16.90;99.90;;;;;;5063909;28;20028;-73
2022/10/05 06:48:34;;;;;;;7.45;2.08;;;16.90;99.90;;;;;;5057313;28;20036;-73
2022/10/05 06:51:22;;;;;;;11.05;1.70;;;16.90;99.90;;;;;;5070882;28;20478;-72
2022/10/05 06:53:56;;;;;;;8.40;2.10;;;16.80;99.90;;;;;;5067393;28;20021;-73
2022/10/05 06:56:22;;;;;;;9.55;2.80;;;16.80;99.90;;;;;;5059288;28;20036;-71
2022/10/05 06:59:08;;;;;;;7.00;1.98;;;16.70;99.90;;;;;;5055760;28;20028;-71
2022/10/05 07:01:38;;;;;;;10.20;2.05;;;16.60;99.90;;;;;;5052267;28;20037;-71
2022/10/05 07:04:23;;;;;;;10.05;1.92;;;16.60;99.90;;;;;;5057827;28;20068;-71
2022/10/05 07:06:54;;;;;;;9.77;2.00;;;16.60;99.90;;;;;;5065232;28;20162;-71
2022/10/05 07:09:20;;;;;;;10.60;1.73;;;16.60;99.90;;;;;;5069076;28;20132;-71
2022/10/05 07:12:06;;;;;;;8.68;1.75;;;16.60;99.90;;;;;;5069960;28;20127;-71
2022/10/05 07:15:01;;;;;;;9.23;1.92;;;16.60;99.90;;;;;;5065486;28;20105;-72
2022/10/05 07:17:45;;;;;;;8.25;1.88;;;16.60;99.90;;;;;;5068150;28;20033;-71
2022/10/05 07:20:19;;;;;;;11.18;1.65;;;16.60;99.90;;;;;;5073836;28;20040;-71
2022/10/05 07:23:12;;;;;;;10.43;1.70;;;16.60;99.90;;;;;;5066477;28;20036;-71
2022/10/05 07:25:57;;;;;;;9.43;1.70;;;16.60;99.90;;;;;;5068437;28;20421;-72
2022/10/05 07:28:31;;;;;;;11.60;2.58;;;16.60;99.90;;;;;;5066864;28;20775;-71
2022/10/05 07:31:06;;;;;;;9.15;2.00;;;16.60;99.90;;;;;;5058615;28;20039;-72
2022/10/05 07:33:46;;;;;;;10.85;2.20;;;16.60;99.90;;;;;;5059976;28;20082;-72
2022/10/05 07:39:23;;;;;;;8.90;1.93;;;16.70;99.90;;;;;;5054795;28;20122;-72
2022/10/05 07:42:02;;;;;;;10.68;2.15;;;16.80;99.90;;;;;;5050238;28;20056;-71
2022/10/05 07:44:46;;;;;;;11.30;2.20;;;16.90;99.90;;;;;;5048810;28;20043;-72
2022/10/05 07:47:29;;;;;;;6.20;1.67;;;16.90;99.90;;;;;;5049419;28;20260;-72
2022/10/05 07:50:21;;;;;;;6.60;1.58;;;17.00;99.90;;;;;;5058623;28;20032;-71
2022/10/05 07:53:04;;;;;;;10.13;1.80;;;17.10;99.90;;;;;;5055760;28;20048;-72
2022/10/05 07:55:39;;;;;;;7.88;1.70;;;17.10;99.90;;;;;;5058801;28;20029;-72
2022/10/05 07:58:26;;;;;;;10.90;1.98;;;17.20;99.90;;;;;;5049914;28;20029;-72
2022/10/05 08:00:58;;;;;;;11.75;2.00;;;17.20;99.90;;;;;;5059684;28;20040;-72
2022/10/05 08:03:38;;;;;;;8.98;1.95;;;17.30;99.90;;;;;;5054514;28;20033;-71
2022/10/05 08:06:10;;;;;;;10.38;1.98;;;17.40;99.90;;;;;;5040445;28;20748;-72
2022/10/05 08:08:52;;;;;;;12.40;2.15;;;17.40;99.90;;;;;;5053404;28;20052;-72
2022/10/05 08:11:28;;;;;;;11.15;2.10;;;17.50;99.90;;;;;;5061917;28;20048;-71
2022/10/05 08:14:23;;;;;;;8.82;1.80;;;17.60;99.90;;;;;;5058380;28;20031;-73
2022/10/05 08:16:52;;;;;;;10.80;2.00;;;17.70;99.90;;;;;;5049435;28;20108;-71
2022/10/05 08:19:36;;;;;;;9.07;2.00;;;17.70;99.90;;;;;;5051199;28;20036;-70
2022/10/05 08:22:09;;;;;;;10.65;2.00;;;17.70;99.90;;;;;;5055662;28;20487;-72
2022/10/05 08:24:55;;;;;;;11.82;2.20;;;17.70;99.90;;;;;;5057497;28;20036;-71
2022/10/05 08:27:40;;;;;;;9.75;1.90;;;17.80;99.90;;;;;;5062700;28;20112;-72
2022/10/05 08:30:12;;;;;;;9.77;2.30;;;17.80;99.90;;;;;;5063036;28;20040;-71
2022/10/05 08:33:04;;;;;;;12.27;2.38;;;17.80;99.90;;;;;;5040024;28;20033;-71
2022/10/05 08:35:43;;;;;;;11.45;2.60;;;17.80;99.90;;;;;;5046183;28;20036;-71
2022/10/05 08:38:15;;;;;;;10.80;2.35;;;17.90;99.90;;;;;;5047993;28;20033;-71
2022/10/05 08:41:02;;;;;;;8.10;1.60;;;17.90;99.90;;;;;;5061525;28;20487;-73
2022/10/05 08:44:05;;;;;;;9.95;1.65;;;17.90;99.90;;;;;;5040701;28;20028;-74
2022/10/05 08:47:00;;;;;;;10.57;2.08;;;18.00;99.90;;;;;;5033466;28;20035;-72
2022/10/05 08:49:37;;;;;;;8.00;2.17;;;18.00;99.90;;;;;;5059695;28;20044;-71
2022/10/05 08:52:06;;;;;;;11.13;1.90;;;18.10;99.90;;;;;;5066195;28;20047;-71
2022/10/05 08:54:51;;;;;;;9.55;1.70;;;18.10;99.90;;;;;;5068210;28;20028;-71
2022/10/05 08:57:34;;;;;;;9.63;2.28;;;18.10;99.90;;;;;;5076470;28;20076;-71
2022/10/05 09:00:17;;;;;;;11.00;2.17;;;18.10;99.90;;;;;;5088573;28;20036;-72
2022/10/05 09:03:08;;;;;;;6.70;1.58;;;18.20;99.90;;;;;;5050869;28;20055;-71
2022/10/05 09:05:48;;;;;;;7.57;1.95;;;18.30;99.90;;;;;;5065704;28;20111;-72
2022/10/05 09:09:02;;;;;;;11.07;1.90;;;18.20;99.90;;;;;;5048288;28;20060;-72
2022/10/05 09:11:34;;;;;;;11.82;1.88;;;18.30;99.90;;;;;;5030505;28;20060;-72
2022/10/05 09:14:37;;;;;;;10.50;1.83;;;18.30;99.90;;;;;;5062236;28;20036;-71
2022/10/05 09:17:41;;;;;;;9.30;2.20;;;18.30;99.90;;;;;;5052967;28;20063;-72
2022/10/05 09:20:29;;;;;;;11.80;2.47;;;18.30;99.90;;;;;;5000944;28;20038;-72
2022/10/05 09:23:18;;;;;;;13.48;2.40;;;18.30;99.90;;;;;;4988459;28;20042;-71
2022/10/05 09:25:55;;;;;;;11.73;2.33;;;18.30;99.90;;;;;;5004551;28;20030;-72
2022/10/05 09:28:29;;;;;;;10.85;1.88;;;18.30;99.90;;;;;;4990398;28;20080;-78
2022/10/05 09:31:22;;;;;;;11.75;1.90;;;18.20;99.90;;;;;;5004802;28;20120;-73
2022/10/05 09:34:30;;;;;;;12.35;2.05;;;18.30;99.90;;;;;;4985910;28;20101;-71
2022/10/05 09:37:28;;;;;;;10.98;2.08;;;18.30;99.90;;;;;;4966408;28;20047;-74
2022/10/05 09:39:59;;;;;;;10.30;2.10;;;18.30;99.90;;;;;;4950377;28;20047;-71
2022/10/05 09:42:48;;;;;;;8.13;1.70;;;18.30;99.90;;;;;;4966058;28;20495;-71
2022/10/05 09:45:43;;;;;;;11.38;2.20;;;18.20;99.90;;;;;;4966057;28;20038;-72
2022/10/05 09:48:35;;;;;;;12.65;2.42;;;18.20;99.90;;;;;;4963851;28;20082;-71
2022/10/05 09:51:19;;;;;;;9.55;1.92;;;18.20;99.90;;;;;;4944881;28;20085;-70
2022/10/05 09:54:28;;;;;;;9.18;1.90;;;18.10;99.90;;;;;;4959209;28;20038;-70
2022/10/05 09:57:12;;;;;;;10.38;1.75;;;18.20;99.90;;;;;;4956042;28;20837;-74
2022/10/05 10:00:07;;;;;;;8.25;1.65;;;18.20;99.90;;;;;;4965772;28;20592;-77
2022/10/05 10:02:51;;;;;;;12.02;1.98;;;18.20;99.90;;;;;;4982622;28;20226;-71
2022/10/05 10:05:30;;;;;;;8.45;1.50;;;18.20;99.90;;;;;;4979070;28;20046;-70
2022/10/05 10:08:32;;;;;;;10.52;1.75;;;18.20;99.90;;;;;;4974907;28;20167;-73
2022/10/05 10:11:40;;;;;;;9.48;1.67;;;18.20;99.90;;;;;;4966267;28;20042;-71
2022/10/05 10:14:24;;;;;;;11.57;1.88;;;18.30;99.90;;;;;;5020114;28;20053;-71
2022/10/05 10:17:05;;;;;;;9.90;1.73;;;18.40;99.90;;;;;;5055570;28;20029;-76
2022/10/05 10:19:40;;;;;;;14.05;2.10;;;18.40;99.90;;;;;;5052318;28;20734;-78
2022/10/05 10:22:26;;;;;;;9.48;1.80;;;18.40;99.90;;;;;;5067371;28;20036;-71
2022/10/05 10:25:10;;;;;;;9.07;2.35;;;18.40;99.90;;;;;;5050335;28;20086;-72
2022/10/05 10:27:41;;;;;;;10.40;1.60;;;18.70;99.90;;;;;;5057900;28;20079;-71
2022/10/05 10:30:35;;;;;;;8.05;1.75;;;18.90;99.90;;;;;;5042505;28;20521;-71
2022/10/05 10:33:12;;;;;;;13.00;1.92;;;19.00;99.90;;;;;;5064649;28;20715;-71
2022/10/05 10:35:59;;;;;;;10.32;2.17;;;18.90;99.90;;;;;;5061137;28;20040;-71
2022/10/05 10:38:39;;;;;;;9.45;1.65;;;18.80;99.90;;;;;;5056382;28;20129;-72
2022/10/05 10:41:13;;;;;;;;;;;18.80;99.90;;;;;;5071088;28;20040;-72
2022/10/05 10:43:49;;;;;;;12.02;1.75;;;18.70;99.90;;;;;;5067704;28;19915;-75
2022/10/05 10:46:32;;;;;;;11.10;2.17;;;18.80;99.90;;;;;;5070533;28;20073;-71
2022/10/05 10:49:19;;;;;;;11.10;1.88;;;18.80;99.90;;;;;;5038337;28;20033;-75
2022/10/05 10:52:10;;;;;;;9.65;1.75;;;18.80;99.90;;;;;;5050378;28;20068;-72
2022/10/05 10:54:53;;;;;;;11.25;1.92;;;18.80;99.90;;;;;;5032223;28;20510;-72
2022/10/05 10:57:32;;;;;;;9.35;1.48;;;18.80;99.90;;;;;;5050411;28;20040;-73
2022/10/05 11:00:14;;;;;;;11.30;1.77;;;18.70;99.90;;;;;;5061150;28;20029;-72
2022/10/05 11:03:10;;;;;;;12.15;2.05;;;18.70;99.90;;;;;;5070607;28;20037;-71
2022/10/05 11:05:58;;;;;;;13.40;2.20;;;18.50;99.90;;;;;;5059130;28;20056;-72
2022/10/05 11:08:45;;;;;;;13.25;2.22;;;18.50;99.90;;;;;;5062360;28;20064;-72
2022/10/05 11:11:25;;;;;;;14.77;2.15;;;18.40;99.90;;;;;;5068891;28;20040;-71
2022/10/05 11:14:16;;;;;;;13.38;2.17;;;18.30;99.90;;;;;;5068829;28;20067;-72
2022/10/05 11:16:44;;;;;;;11.70;1.95;;;18.20;99.90;;;;;;5062959;28;20380;-72
2022/10/05 11:19:37;;;;;;;13.27;2.35;;;18.20;99.90;;;;;;5065364;28;20059;-72
2022/10/05 11:22:09;;;;;;;10.77;1.90;;;18.10;99.90;;;;;;5054149;28;20036;-72
2022/10/05 11:25:01;;;;;;;12.20;1.98;;;18.00;99.90;;;;;;5050229;28;20033;-73
2022/10/05 11:27:36;;;;;;;10.38;1.95;;;18.00;99.90;;;;;;5062112;28;20065;-71
2022/10/05 11:30:19;;;;;;;9.45;1.70;;;18.10;99.90;;;;;;5052848;28;20035;-73
2022/10/05 11:33:10;;;;;;;16.05;2.15;;;18.00;99.90;;;;;;5062197;28;20159;-71
2022/10/05 11:35:42;;;;;;;14.50;2.65;;;18.10;99.90;;;;;;5068593;28;20024;-72
2022/10/05 11:38:37;;;;;;;12.63;2.20;;;18.00;99.90;;;;;;5045082;28;20032;-72
2022/10/05 11:41:18;;;;;;;14.82;2.20;;;18.00;99.90;;;;;;5048205;28;20103;-73
2022/10/05 11:43:52;;;;;;;15.98;2.53;;;18.00;99.90;;;;;;5055261;28;20033;-71
2022/10/05 11:46:28;;;;;;;15.75;2.42;;;18.00;99.90;;;;;;5051968;28;20036;-78
2022/10/05 11:49:16;;;;;;;11.18;2.85;;;17.90;99.90;;;;;;5069374;28;20043;-72
2022/10/05 11:52:07;;;;;;;19.30;2.60;;;17.90;99.90;;;;;;5072669;28;20071;-72
2022/10/05 11:54:59;;;;;;;11.20;2.22;;;17.90;99.90;;;;;;5067937;28;20097;-72
2022/10/05 11:57:49;;;;;;;10.55;2.55;;;17.90;99.90;;;;;;5051981;28;20036;-73
2022/10/05 12:00:21;;;;;;;13.10;2.22;;;18.00;99.90;;;;;;5048981;28;20045;-72
2022/10/05 12:03:08;;;;;;;14.32;2.60;;;18.00;99.90;;;;;;5047949;28;20764;-75
2022/10/05 12:05:37;;;;;;;10.90;2.50;;;17.90;99.90;;;;;;5047821;28;20043;-75
2022/10/05 12:08:36;;;;;;;10.95;2.38;;;17.90;99.90;;;;;;5049207;28;20053;-71
2022/10/05 12:11:26;;;;;;;13.57;3.00;;;17.70;99.90;;;;;;5049406;28;20033;-71
2022/10/05 12:14:00;;;;;;;12.05;2.72;;;17.60;99.90;;;;;;5049970;28;20043;-70
2022/10/05 12:16:26;;;;;;;11.85;2.28;;;17.40;99.90;;;;;;5048782;28;20032;-72
2022/10/05 12:18:59;;;;;;;13.75;2.25;;;17.30;99.90;;;;;;5049273;28;20024;-72
2022/10/05 12:21:37;;;;;;;17.30;2.95;;;17.20;99.90;;;;;;5049191;28;20040;-71
2022/10/05 12:24:42;;;;;;;13.93;2.53;;;17.20;99.90;;;;;;5051687;28;20036;-71
2022/10/05 12:27:21;;;;;;;15.10;3.25;;;17.20;99.90;;;;;;5057892;28;20039;-72
2022/10/05 12:30:17;;;;;;;17.38;3.28;;;17.30;99.90;;;;;;5049366;28;20025;-76
2022/10/05 12:33:11;;;;;;;17.50;3.10;;;17.30;99.90;;;;;;5055463;28;20040;-73
2022/10/05 12:35:47;;;;;;;12.48;2.90;;;17.50;99.90;;;;;;5068820;28;20167;-71
2022/10/05 12:38:44;;;;;;;14.85;2.92;;;17.50;99.90;;;;;;5067923;28;20055;-71
2022/10/05 12:41:32;;;;;;;12.23;2.28;;;17.60;99.90;;;;;;5071595;28;20035;-77
2022/10/05 12:44:12;;;;;;;12.95;2.50;;;17.70;99.90;;;;;;5056638;28;20043;-75
2022/10/05 12:47:03;;;;;;;13.27;2.80;;;17.80;99.90;;;;;;5055069;28;20044;-74
2022/10/05 12:49:47;;;;;;;13.98;2.67;;;17.80;99.90;;;;;;5060577;28;20569;-73
2022/10/05 12:52:51;;;;;;;16.65;2.97;;;17.80;99.90;;;;;;5048423;28;20102;-77
2022/10/05 12:55:41;;;;;;;17.13;2.83;;;17.90;99.90;;;;;;5000111;28;20090;-73
2022/10/05 12:58:15;;;;;;;12.65;2.97;;;17.90;99.90;;;;;;5051810;28;20074;-79
2022/10/05 13:01:00;;;;;;;15.18;2.30;;;17.90;99.90;;;;;;5068342;28;20103;-74
2022/10/05 13:03:46;;;;;;;14.05;2.30;;;17.90;99.90;;;;;;5053555;28;20522;-74
2022/10/05 13:06:23;;;;;;;14.38;3.03;;;17.90;99.90;;;;;;5049073;28;20033;-74
2022/10/05 13:08:58;;;;;;;15.30;3.03;;;18.00;99.90;;;;;;5048033;28;20056;-73
2022/10/05 13:11:37;;;;;;;14.88;3.25;;;18.00;99.90;;;;;;5047752;28;20033;-72
2022/10/05 13:14:32;;;;;;;17.55;3.25;;;18.00;99.90;;;;;;5030687;28;20028;-73
2022/10/05 13:17:13;;;;;;;13.88;2.40;;;18.10;99.90;;;;;;5007729;28;20037;-80
2022/10/05 13:19:44;;;;;;;16.17;2.97;;;18.10;99.90;;;;;;5056367;28;20557;-79
2022/10/05 13:22:45;;;;;;;15.13;2.75;;;18.10;99.90;;;;;;5066182;28;20044;-82
2022/10/05 13:25:24;;;;;;;15.15;2.85;;;18.10;99.90;;;;;;5029267;28;20036;-77
2022/10/05 13:28:14;;;;;;;14.70;3.22;;;18.00;99.90;;;;;;5030479;28;20037;-77
2022/10/05 13:30:52;;;;;;;13.18;2.90;;;18.00;99.90;;;;;;5057268;28;20040;-75
2022/10/05 13:33:35;;;;;;;18.35;3.22;;;17.90;99.90;;;;;;5067634;28;20111;-72
2022/10/05 13:36:08;;;;;;;15.57;3.15;;;17.70;99.90;;;;;;5080607;28;20028;-72
2022/10/05 13:38:45;;;;;;;19.25;3.45;;;17.70;99.90;;;;;;5065918;28;20061;-72
2022/10/05 13:41:23;;;;;;;21.77;3.90;;;17.60;99.90;;;;;;5048366;28;20035;-71
2022/10/05 13:44:27;;;;;;;15.48;3.22;;;17.60;99.90;;;;;;5048068;28;20059;-73
2022/10/05 13:47:19;;;;;;;17.20;3.13;;;17.70;99.90;;;;;;4985598;28;20082;-73
2022/10/05 13:50:02;;;;;;;16.73;3.25;;;17.70;99.90;;;;;;4992780;28;20033;-79
2022/10/05 13:52:46;;;;;;;12.80;2.75;;;17.80;99.90;;;;;;5006042;28;20045;-77
2022/10/05 13:55:29;;;;;;;16.95;3.17;;;17.80;99.90;;;;;;4988227;28;20484;-85
2022/10/05 13:58:27;;;;;;;18.63;2.88;;;17.90;99.90;;;;;;5005769;28;20038;-75
2022/10/05 14:00:56;;;;;;;15.45;3.55;;;17.80;99.90;;;;;;5005410;28;20495;-74
2022/10/05 14:03:36;;;;;;;15.95;3.10;;;17.80;99.90;;;;;;5005038;28;20049;-73
2022/10/05 14:06:12;;;;;;;16.65;3.50;;;17.70;99.90;;;;;;5004868;28;20416;-74